»·PEaware :: FDX3171 KSAN-KLAX

FDX3171 :: KSAN-KLAX

FLIGHT INFORMATION

Flight Status: Arrived
Operator:
Federal Express
More flights by this operator :: More flights under this callsign
Pilot: David C. (16084)
Aircraft: BEECH AIRCRAFT BEECH AIRLINER
(B190)
More flights by this aircraft type
Origin: KSAN San Diego Intl-Lindbergh
United States
Destination: KLAX Los Angeles Intl
United States
More flights between these airports :: More routes between these airports
Route: +SANN4R
File this flight plan on PilotEdge
Remarks:
Altitude:
(Current/Filed)
8,000ft
Speed:
(Current/Filed)
265kts
Departed: 08-May-18 12:16 PM
Arrived: 08-May-18 12:45 PM
Distance/Time
Traveled:
94nm/0:29
Distance/Time
To Go:
Arrived

Flight Plot

Page will automatically refresh every two minutes.

Flight plan parsing failed; only flown route is shown


Map Options




Map Legend


Flown Route
Filed Route
Departure Airport
Arrival Airport
Navaid (VOR, NDB)
Fix

Horizontal Profiles

Position Reports

Time Latitude Longitude Heading Altitude Ground
Speed
08-May-18 11:59 32.737476 -117.185658 355 22ft 0kts
08-May-18 12:00 32.737476 -117.185658 355 22ft 0kts
08-May-18 12:01 32.737476 -117.185658 355 22ft 0kts
08-May-18 12:02 32.737476 -117.185658 355 22ft 0kts
08-May-18 12:03 32.737476 -117.185658 355 22ft 0kts
08-May-18 12:04 32.737476 -117.185658 355 22ft 0kts
08-May-18 12:05 32.737476 -117.185658 355 22ft 0kts
08-May-18 12:06 32.737476 -117.185658 355 22ft 0kts
08-May-18 12:07 32.737476 -117.185658 355 22ft 0kts
08-May-18 12:08 32.737476 -117.185658 355 22ft 0kts
08-May-18 12:09 32.737634 -117.185903 254 22ft 5kts
08-May-18 12:10 32.737599 -117.185979 233 22ft 0kts
08-May-18 12:11 32.737209 -117.186144 160 22ft 7kts
08-May-18 12:12 32.733908 -117.183966 190 22ft 16kts
08-May-18 12:13 32.731950 -117.178302 106 22ft 22kts
08-May-18 12:14 32.730944 -117.175511 137 22ft 0kts
08-May-18 12:15 32.730942 -117.175509 137 22ft 0kts
08-May-18 12:16 32.733409 -117.189512 281 101ft 147kts
08-May-18 12:17 32.753451 -117.240950 305 1770ft 212kts
08-May-18 12:18 32.782963 -117.289882 301 5033ft 168kts
08-May-18 12:19 32.817751 -117.346888 306 5513ft 225kts
08-May-18 12:20 32.851306 -117.398730 306 7946ft 187kts
08-May-18 12:21 32.888002 -117.455769 307 8040ft 238kts
08-May-18 12:22 32.930753 -117.522211 307 8038ft 266kts
08-May-18 12:23 32.976173 -117.592926 307 8037ft 272kts
08-May-18 12:24 33.021431 -117.663518 307 8038ft 273kts
08-May-18 12:25 33.068294 -117.734193 318 8028ft 273kts
08-May-18 12:26 33.124760 -117.791578 319 8039ft 272kts
08-May-18 12:27 33.181963 -117.849786 319 8038ft 272kts
08-May-18 12:28 33.252619 -117.876622 347 8040ft 273kts
08-May-18 12:29 33.324979 -117.894542 347 8036ft 262kts
08-May-18 12:30 33.395921 -117.913601 342 8035ft 265kts
08-May-18 12:31 33.466042 -117.939028 341 8029ft 263kts
08-May-18 12:32 33.536066 -117.964525 341 8029ft 264kts
08-May-18 12:33 33.606387 -117.990136 341 8038ft 265kts
08-May-18 12:34 33.676578 -118.015769 341 8038ft 265kts
08-May-18 12:35 33.742895 -118.040004 341 7067ft 240kts
08-May-18 12:36 33.804793 -118.052200 1 6369ft 219kts
08-May-18 12:37 33.860698 -118.050527 1 5017ft 181kts
08-May-18 12:38 33.913865 -118.048780 1 3125ft 199kts
08-May-18 12:39 33.953180 -118.075158 292 3044ft 193kts
08-May-18 12:40 33.974024 -118.140244 277 3012ft 218kts
08-May-18 12:41 33.959192 -118.212130 250 2625ft 222kts
08-May-18 12:42 33.948727 -118.270534 263 2004ft 158kts
08-May-18 12:43 33.943718 -118.320670 263 1179ft 147kts
08-May-18 12:44 33.938916 -118.367690 263 421ft 127kts
08-May-18 12:45 33.935336 -118.400428 248 130ft 32kts
08-May-18 12:46 33.934546 -118.401825 173 130ft 0kts
08-May-18 12:47 33.934401 -118.399969 82 130ft 15kts
08-May-18 12:48 33.935116 -118.393022 84 130ft 23kts
08-May-18 12:49 33.935867 -118.385314 82 130ft 23kts
08-May-18 12:50 33.934444 -118.381144 180 130ft 14kts

Navigation Log

Ident Type
Flight plan parsing failed, navigation log unavailable